This is the latest recevied weather packets stored in our database for station/object XE2RCS-21. If no packets are shown the sender has not sent any weather packets the latest 10 day(s).
| Time | Temp. | Humidity | Pressure | Rain* | Wind** | Luminosity | Snow |
|---|---|---|---|---|---|---|---|
| 1778203847 | 22.22° C | 100% | 1006.1 hPa | - | - | - | - |
| 1778202047 | 23.33° C | 100% | 1008 hPa | - | - | - | - |
| 1778200246 | 26.67° C | 100% | 1015.7 hPa | - | - | - | - |
| 1778198446 | 27.78° C | 100% | 1017.1 hPa | - | - | - | - |
| 1778196646 | 27.22° C | 100% | 1017.8 hPa | - | - | - | - |
| 1778194846 | 30° C | 75% | 1018.3 hPa | - | - | - | - |
| 1778193046 | 28.89° C | 98% | 1018 hPa | - | - | - | - |
| 1778191245 | 31.11° C | 61% | 1018.7 hPa | - | - | - | - |
| 1778189446 | 31.67° C | 60% | 1018.8 hPa | - | - | - | - |
| 1778187646 | 29.44° C | 87% | 1018.6 hPa | - | - | - | - |
| 1778185846 | 30.56° C | 84% | 1019.1 hPa | - | - | - | - |
| 1778184046 | 33.89° C | 53% | 1019.7 hPa | - | - | - | - |
| 1778182245 | 33.89° C | 58% | 1020 hPa | - | - | - | - |
| 1778180445 | 34.44° C | 59% | 1020.5 hPa | - | - | - | - |
| 1778178645 | 33.33° C | 63% | 1021 hPa | - | - | - | - |
| 1778176845 | 32.78° C | 72% | 1021.3 hPa | - | - | - | - |
| 1778175045 | 31.11° C | 91% | 1021 hPa | - | - | - | - |
| 1778173244 | 30.56° C | 100% | 1020.7 hPa | - | - | - | - |
| 1778171444 | 30° C | 100% | 1019.6 hPa | - | - | - | - |
| 1778169644 | 27.22° C | 100% | 1014.7 hPa | - | - | - | - |
| 1778167845 | 25° C | 100% | 1013.8 hPa | - | - | - | - |
| 1778166044 | 24.44° C | 100% | 1011.9 hPa | - | - | - | - |
| 1778164244 | 23.33° C | 100% | 1011 hPa | - | - | - | - |
| 1778162444 | 22.78° C | 100% | 1010.6 hPa | - | - | - | - |
| 1778160644 | 23.89° C | 100% | 1009.7 hPa | - | - | - | - |
* Rain since midnight (hover to see other rain measurements)
** Current wind speed in m/s (hover to see current wind gust speed)